Time;durP1;ratioP1;P1;durP2;ratioP2;P2;SDS_P1;SDS_P2;PMS_P1;PMS_P2;Temp;Humidity;BMP_temperature;BMP_pressure;BME280_temperature;BME280_humidity;BME280_pressure;Samples;Min_cycle;Max_cycle;Signal;HPM_P1;HPM_P2
2024/04/11 00:09:01;;;;;;;4.90;2.30;;;;;;;10.79;65.81;100941.73;448837;1233;139162;-58
2024/04/11 00:19:05;;;;;;;5.10;3.00;;;;;;;10.54;66.14;100950.84;448422;1237;140505;-59
2024/04/11 00:29:10;;;;;;;4.20;2.90;;;;;;;10.26;66.65;100956.84;448742;1237;139978;-58
2024/04/11 00:39:18;;;;;;;3.00;1.80;;;;;;;10.02;67.03;100956.40;451387;1237;138531;-57
2024/04/11 00:49:22;;;;;;;7.00;1.80;;;;;;;9.78;67.65;100953.84;450475;1234;139368;-59
2024/04/11 00:59:27;;;;;;;3.70;2.30;;;;;;;9.55;68.07;100963.48;449886;1238;139955;-58
2024/04/11 01:09:30;;;;;;;3.90;3.40;;;;;;;9.32;68.77;100963.95;450141;1237;138844;-79
2024/04/11 01:19:34;;;;;;;4.20;3.10;;;;;;;9.10;69.31;100965.44;449306;1233;139640;-79
2024/04/11 01:29:38;;;;;;;5.90;2.60;;;;;;;8.89;69.88;100946.27;448733;1234;244589;-57
2024/04/11 01:39:44;;;;;;;3.20;2.70;;;;;;;8.72;70.44;100945.45;449305;1235;139401;-58
2024/04/11 01:49:48;;;;;;;2.60;2.10;;;;;;;8.61;70.67;100952.83;448549;1237;139553;-50
2024/04/11 01:59:53;;;;;;;3.10;2.80;;;;;;;8.45;70.95;100957.69;448525;1238;139373;-51
2024/04/11 02:09:57;;;;;;;3.90;2.10;;;;;;;8.26;71.10;100965.98;449470;1233;139657;-52
2024/04/11 02:20:10;;;;;;;4.30;2.30;;;;;;;8.05;71.89;100974.98;449957;1237;139719;-48
2024/04/11 02:30:13;;;;;;;2.10;1.90;;;;;;;7.82;72.95;100985.46;449367;1237;139148;-51
2024/04/11 02:40:17;;;;;;;3.80;2.30;;;;;;;7.54;73.48;100991.32;448447;1238;140203;-52
2024/04/11 02:50:23;;;;;;;5.30;2.30;;;;;;;7.36;74.20;100993.41;449189;1237;137519;-49
2024/04/11 03:00:27;;;;;;;6.30;2.30;;;;;;;7.25;74.97;100991.27;448680;1238;139261;-83
2024/04/11 03:10:33;;;;;;;6.60;3.30;;;;;;;7.07;75.17;101000.98;449582;1234;139504;-78
2024/04/11 03:20:36;;;;;;;7.40;3.30;;;;;;;6.83;75.45;101008.91;450038;1238;138702;-76
2024/04/11 03:30:41;;;;;;;8.60;2.90;;;;;;;6.50;75.98;101013.72;448480;1238;139369;-79
2024/04/11 03:40:55;;;;;;;4.00;2.90;;;;;;;6.27;76.56;101017.93;449187;1233;139204;-59
2024/04/11 03:51:08;;;;;;;8.30;3.20;;;;;;;6.02;77.33;101021.23;449094;1237;138678;-58
2024/04/11 04:01:13;;;;;;;13.50;4.60;;;;;;;5.84;77.88;101025.27;449777;1235;138844;-57
2024/04/11 04:11:20;;;;;;;11.50;3.70;;;;;;;5.70;78.60;101031.30;449131;1238;140514;-56
2024/04/11 04:21:26;;;;;;;7.10;3.80;;;;;;;5.72;79.38;101038.54;449898;1234;138949;-56
2024/04/11 04:31:31;;;;;;;11.60;4.20;;;;;;;5.97;79.82;101039.08;449819;1237;138869;-57
2024/04/11 04:41:35;;;;;;;14.00;5.50;;;;;;;6.36;80.20;101046.58;449317;1234;138839;-58
2024/04/11 04:51:44;;;;;;;12.40;5.80;;;;;;;6.94;79.83;101051.64;449569;1238;138981;-57
2024/04/11 05:01:47;;;;;;;10.00;6.70;;;;;;;7.68;80.12;101067.96;449801;1237;139303;-58
2024/04/11 05:11:51;;;;;;;14.30;6.00;;;;;;;8.55;79.48;101069.58;450475;1238;138843;-57
2024/04/11 05:21:55;;;;;;;9.40;6.20;;;;;;;9.23;78.54;101081.86;450058;1234;139381;-58
2024/04/11 05:32:01;;;;;;;14.50;5.80;;;;;;;10.16;77.60;101077.45;450032;1238;139266;-58
2024/04/11 05:42:06;;;;;;;25.40;7.70;;;;;;;11.53;76.30;101083.79;449464;1237;139206;-59
2024/04/11 05:52:10;;;;;;;16.30;6.90;;;;;;;14.26;77.33;101085.73;449404;1238;140140;-59
2024/04/11 06:02:13;;;;;;;13.50;6.80;;;;;;;21.16;72.23;101081.98;448789;1238;140066;-60
2024/04/11 06:12:19;;;;;;;8.50;5.40;;;;;;;27.22;60.22;101079.65;449579;1238;139120;-60
2024/04/11 06:22:22;;;;;;;10.60;5.20;;;;;;;31.67;49.20;101082.90;449623;1237;139031;-59
2024/04/11 06:32:26;;;;;;;5.20;3.40;;;;;;;35.10;41.09;101081.70;448814;1237;139388;-62
2024/04/11 06:42:29;;;;;;;5.10;3.30;;;;;;;37.78;35.02;101083.55;451033;1237;138703;-64
2024/04/11 06:52:33;;;;;;;5.60;3.50;;;;;;;39.56;30.79;101090.67;451622;1237;138445;-76
2024/04/11 07:02:40;;;;;;;5.30;2.80;;;;;;;41.87;27.97;101093.71;451317;1237;139556;-66
2024/04/11 07:12:46;;;;;;;3.90;2.30;;;;;;;43.74;24.53;101098.73;462318;1235;138591;-65
2024/04/11 07:22:50;;;;;;;3.30;2.40;;;;;;;44.45;23.08;101101.23;450033;1237;138951;-58
2024/04/11 07:32:56;;;;;;;2.90;2.10;;;;;;;46.78;21.55;101094.77;449667;1238;139606;-57
2024/04/11 07:43:06;;;;;;;3.60;3.00;;;;;;;48.57;19.92;101099.13;449724;1237;138949;-65
2024/04/11 07:53:14;;;;;;;6.00;3.40;;;;;;;48.95;18.35;101093.27;462289;1233;139232;-73
2024/04/11 08:03:20;;;;;;;5.50;4.00;;;;;;;48.87;17.33;101088.92;462422;1234;138233;-59
2024/04/11 08:13:23;;;;;;;7.60;4.60;;;;;;;49.39;17.10;101083.19;462360;1237;138717;-71
2024/04/11 08:23:27;;;;;;;3.00;2.70;;;;;;;48.55;16.00;101079.54;462317;1235;138739;-69
2024/04/11 08:33:30;;;;;;;2.40;2.20;;;;;;;43.36;16.46;101076.09;462457;1234;139223;-63
2024/04/11 08:43:37;;;;;;;4.70;3.00;;;;;;;36.84;17.64;101079.64;455583;1237;138977;-59
2024/04/11 08:53:45;;;;;;;3.70;2.90;;;;;;;30.88;20.36;101089.27;462501;1235;139053;-59
2024/04/11 09:04:06;;;;;;;2.70;2.50;;;;;;;28.16;22.39;101085.66;462601;1233;138419;-57
2024/04/11 09:14:12;;;;;;;4.70;2.40;;;;;;;26.07;24.12;101088.92;462521;1235;138749;-59
2024/04/11 09:24:17;;;;;;;4.30;2.50;;;;;;;24.99;25.22;101086.83;462374;1234;139055;-58
2024/04/11 09:34:27;;;;;;;3.00;1.90;;;;;;;24.24;25.47;101077.61;462409;1234;139359;-60
2024/04/11 09:44:31;;;;;;;8.80;3.30;;;;;;;23.46;26.74;101080.60;462526;1235;139468;-73
2024/04/11 09:54:38;;;;;;;5.40;2.70;;;;;;;23.09;27.63;101081.36;462404;1237;139084;-67
2024/04/11 10:04:42;;;;;;;;;;;;;;;22.74;27.93;101071.15;462420;1235;139067;-71
2024/04/11 10:14:49;;;;;;;4.70;2.20;;;;;;;21.83;28.84;101069.24;462507;1235;124960;-65
2024/04/11 10:25:06;;;;;;;4.40;2.70;;;;;;;20.76;29.87;101067.30;462372;1234;138746;-67
2024/04/11 10:35:10;;;;;;;2.00;1.70;;;;;;;20.12;30.93;101062.24;462413;1234;138519;-66
2024/04/11 10:45:17;;;;;;;3.50;2.10;;;;;;;19.76;31.99;101058.27;462526;1233;138410;-69
2024/04/11 10:55:28;;;;;;;4.00;1.80;;;;;;;18.93;32.48;101060.62;462448;1234;138850;-67
2024/04/11 11:05:33;;;;;;;4.50;2.20;;;;;;;18.66;33.33;101053.89;462382;1235;138909;-63
2024/04/11 11:15:37;;;;;;;7.50;2.20;;;;;;;18.75;33.80;101048.13;462557;1235;139351;-62
2024/04/11 11:25:42;;;;;;;3.00;1.40;;;;;;;18.56;33.90;101043.83;462504;1234;139223;-63
2024/04/11 11:35:46;;;;;;;7.10;2.60;;;;;;;18.58;34.53;101034.45;462504;1234;138292;-62
2024/04/11 11:56:22;;;;;;;3.10;1.70;;;;;;;18.24;34.79;101020.10;459747;1241;138434;-65
2024/04/11 12:06:33;;;;;;;3.80;1.20;;;;;;;18.03;35.41;101013.15;459642;1241;139529;-62
2024/04/11 12:16:39;;;;;;;5.50;1.40;;;;;;;17.99;35.75;100997.94;459674;1241;138773;-63
2024/04/11 12:26:44;;;;;;;6.80;1.90;;;;;;;17.94;36.11;100982.20;455869;1235;138784;-62
2024/04/11 12:36:56;;;;;;;3.20;1.60;;;;;;;17.92;36.54;100973.52;450500;1237;138744;-63
2024/04/11 12:47:01;;;;;;;1.70;1.40;;;;;;;17.61;36.84;100960.89;450850;1234;138949;-61
2024/04/11 12:57:05;;;;;;;4.00;1.60;;;;;;;17.37;37.40;100957.23;450276;1235;139276;-64
2024/04/11 13:07:10;;;;;;;7.40;2.10;;;;;;;17.35;37.75;100951.36;462494;1234;138798;-62
2024/04/11 13:17:17;;;;;;;1.70;1.20;;;;;;;17.35;38.04;100946.06;462438;1233;138429;-59
2024/04/11 13:27:28;;;;;;;2.70;1.60;;;;;;;17.26;38.02;100939.41;458546;1233;5103029;-60
2024/04/11 13:37:37;;;;;;;9.30;2.40;;;;;;;17.22;38.20;100930.86;462443;1235;140925;-62
2024/04/11 13:47:43;;;;;;;7.60;2.10;;;;;;;17.19;38.53;100921.69;462595;1234;138808;-57
2024/04/11 13:57:49;;;;;;;4.20;2.30;;;;;;;17.27;38.78;100918.33;462577;1234;139217;-66
2024/04/11 14:07:54;;;;;;;8.50;2.80;;;;;;;17.34;38.68;100916.56;462502;1234;138819;-56
2024/04/11 14:17:57;;;;;;;4.30;1.50;;;;;;;17.39;38.57;100916.23;462506;1235;138931;-63
2024/04/11 14:28:01;;;;;;;9.30;2.70;;;;;;;17.38;38.64;100902.86;462570;1234;139824;-65
2024/04/11 14:38:07;;;;;;;7.40;3.80;;;;;;;17.35;38.36;100891.36;462473;1235;138809;-67
2024/04/11 14:48:18;;;;;;;6.10;2.80;;;;;;;17.31;38.26;100893.11;462339;1234;138266;-65
2024/04/11 14:58:30;;;;;;;8.30;4.10;;;;;;;17.24;38.37;100883.31;462450;1235;138309;-63
2024/04/11 15:08:35;;;;;;;10.00;4.00;;;;;;;17.23;38.41;100871.14;462536;1233;138246;-65
2024/04/11 15:18:41;;;;;;;4.70;3.80;;;;;;;17.22;38.27;100872.66;462398;1233;138565;-81
2024/04/11 15:28:45;;;;;;;14.30;3.80;;;;;;;17.14;38.14;100867.02;462368;1233;138757;-64
2024/04/11 15:38:49;;;;;;;8.50;3.10;;;;;;;17.08;37.89;100860.18;462538;1235;139067;-74
2024/04/11 15:48:56;;;;;;;5.60;2.40;;;;;;;16.98;37.83;100856.29;462362;1233;138837;-56
2024/04/11 15:59:08;;;;;;;7.90;3.50;;;;;;;16.81;37.96;100857.27;456684;1236;139199;-56
2024/04/11 16:09:12;;;;;;;11.00;3.20;;;;;;;16.59;37.95;100850.16;448969;1233;138692;-54
2024/04/11 16:19:16;;;;;;;6.30;2.50;;;;;;;16.36;38.19;100842.70;449218;1237;138656;-55
2024/04/11 16:29:19;;;;;;;6.00;1.30;;;;;;;16.13;38.42;100847.97;449499;1233;138841;-56
2024/04/11 16:39:49;;;;;;;4.70;1.80;;;;;;;15.89;38.82;100845.79;449690;1235;138642;-55
2024/04/11 16:49:53;;;;;;;4.60;2.10;;;;;;;15.75;39.00;100841.93;449192;1237;138755;-55
2024/04/11 17:00:00;;;;;;;7.20;1.60;;;;;;;15.40;39.28;100833.39;448734;1238;138963;-57
2024/04/11 17:10:16;;;;;;;3.90;2.20;;;;;;;15.05;39.94;100835.28;448965;1235;139159;-56
2024/04/11 17:31:02;;;;;;;16.20;2.70;;;;;;;14.20;41.87;100843.56;449372;1233;138986;-55
2024/04/11 17:41:05;;;;;;;4.70;1.80;;;;;;;13.73;42.83;100851.17;449703;1236;138696;-55
2024/04/11 17:51:15;;;;;;;6.50;2.10;;;;;;;13.30;44.04;100858.46;448709;1237;138999;-55
2024/04/11 18:01:23;;;;;;;17.70;4.40;;;;;;;12.89;45.14;100872.63;448468;1233;138328;-67
2024/04/11 18:11:27;;;;;;;25.60;4.80;;;;;;;12.51;46.61;100883.91;448151;1238;138966;-67
2024/04/11 18:21:34;;;;;;;13.80;3.40;;;;;;;12.14;47.85;100886.11;449113;1238;138869;-55
2024/04/11 18:31:41;;;;;;;9.10;2.20;;;;;;;11.77;49.27;100890.33;448739;1237;138685;-55
2024/04/11 18:41:48;;;;;;;4.20;1.70;;;;;;;11.38;50.66;100898.63;448879;1238;138899;-55
2024/04/11 18:51:52;;;;;;;15.70;2.40;;;;;;;11.05;52.08;100897.83;448425;1237;139798;-55
2024/04/11 19:02:07;;;;;;;9.10;3.40;;;;;;;10.73;53.15;100900.13;448677;1238;138746;-55
2024/04/11 19:12:13;;;;;;;9.60;3.50;;;;;;;10.47;54.26;100902.64;448158;1237;139238;-55
2024/04/11 19:22:18;;;;;;;7.80;3.10;;;;;;;10.23;55.58;100908.31;448901;1238;138706;-53
2024/04/11 19:32:26;;;;;;;10.10;4.50;;;;;;;10.00;56.55;100907.33;448899;1235;138365;-53
2024/04/11 19:42:30;;;;;;;12.60;6.40;;;;;;;9.79;57.59;100906.59;449033;1235;139855;-54
2024/04/11 19:52:34;;;;;;;15.90;6.70;;;;;;;9.60;58.34;100900.85;449223;1234;139265;-53
2024/04/11 20:02:38;;;;;;;9.60;6.30;;;;;;;9.42;59.57;100897.02;449764;1237;138628;-54
2024/04/11 20:12:41;;;;;;;15.30;6.40;;;;;;;9.23;60.64;100895.98;448886;1237;138490;-54
2024/04/11 20:22:48;;;;;;;15.60;9.80;;;;;;;9.04;61.69;100895.07;449349;1237;139592;-51
2024/04/11 20:32:55;;;;;;;23.50;13.40;;;;;;;8.90;62.47;100898.56;449568;1233;139023;-59
2024/04/11 20:43:02;;;;;;;26.70;13.40;;;;;;;8.87;63.60;100897.09;449754;1237;139241;-55
2024/04/11 21:34:32;;;;;;;33.30;20.80;;;;;;;8.53;66.92;100898.79;448906;1237;140285;-52
2024/04/11 21:44:39;;;;;;;28.00;18.10;;;;;;;8.43;67.49;100902.23;449667;1237;139416;-53
2024/04/11 21:54:43;;;;;;;29.00;20.10;;;;;;;8.36;68.02;100903.00;449517;1237;139526;-54
2024/04/11 22:04:50;;;;;;;30.30;19.40;;;;;;;8.34;68.71;100904.48;449921;1237;140998;-56
2024/04/11 22:14:57;;;;;;;32.40;21.10;;;;;;;8.33;69.31;100902.92;448312;1235;139110;-56
2024/04/11 22:25:01;;;;;;;28.90;19.60;;;;;;;8.35;69.89;100904.43;448524;1233;139429;-54
2024/04/11 22:35:05;;;;;;;31.10;19.50;;;;;;;8.40;70.18;100903.37;449441;1237;139399;-53
2024/04/11 22:45:09;;;;;;;39.00;25.30;;;;;;;8.43;70.64;100908.02;449132;1237;139906;-55
2024/04/11 22:55:15;;;;;;;45.30;23.20;;;;;;;8.49;71.41;100907.98;448573;1233;139729;-53
2024/04/11 23:05:18;;;;;;;43.60;23.70;;;;;;;8.56;71.71;100915.98;449069;1233;140189;-55
2024/04/11 23:15:24;;;;;;;33.70;22.00;;;;;;;8.62;72.02;100919.42;450882;1238;139377;-55
2024/04/11 23:25:37;;;;;;;27.40;18.70;;;;;;;8.64;71.45;100928.09;449707;1233;139569;-56
2024/04/11 23:35:48;;;;;;;19.60;14.20;;;;;;;8.64;71.61;100920.59;447899;1239;139280;-55
2024/04/11 23:45:58;;;;;;;19.10;12.70;;;;;;;8.68;71.82;100925.68;448690;1234;139332;-52
2024/04/11 23:56:14;;;;;;;14.00;10.30;;;;;;;8.79;72.21;100922.72;447986;1233;139286;-54
